sensor_id;sensor_type;location;lat;lon;timestamp;P1;durP1;ratioP1;P2;durP2;ratioP2
40244;SDS011;25963;42.694;23.600;2022-11-15T00:01:31;82.68;;;37.10;;
40244;SDS011;25963;42.694;23.600;2022-11-15T00:03:56;95.45;;;41.88;;
40244;SDS011;25963;42.694;23.600;2022-11-15T00:06:22;69.65;;;37.55;;
40244;SDS011;25963;42.694;23.600;2022-11-15T00:08:47;70.40;;;36.58;;
40244;SDS011;25963;42.694;23.600;2022-11-15T00:11:13;67.35;;;32.83;;
40244;SDS011;25963;42.694;23.600;2022-11-15T00:13:38;63.60;;;33.85;;
40244;SDS011;25963;42.694;23.600;2022-11-15T00:16:04;64.80;;;32.53;;
40244;SDS011;25963;42.694;23.600;2022-11-15T00:18:30;77.78;;;38.45;;
40244;SDS011;25963;42.694;23.600;2022-11-15T00:21:02;69.30;;;37.25;;
40244;SDS011;25963;42.694;23.600;2022-11-15T00:23:29;65.65;;;37.70;;
40244;SDS011;25963;42.694;23.600;2022-11-15T00:25:55;100.13;;;49.33;;
40244;SDS011;25963;42.694;23.600;2022-11-15T00:28:21;98.70;;;43.92;;
40244;SDS011;25963;42.694;23.600;2022-11-15T00:30:47;181.68;;;52.55;;
40244;SDS011;25963;42.694;23.600;2022-11-15T00:33:12;192.98;;;51.15;;
40244;SDS011;25963;42.694;23.600;2022-11-15T00:35:37;243.32;;;56.38;;
40244;SDS011;25963;42.694;23.600;2022-11-15T00:38:03;129.52;;;54.78;;
40244;SDS011;25963;42.694;23.600;2022-11-15T00:40:28;225.20;;;58.55;;
40244;SDS011;25963;42.694;23.600;2022-11-15T00:42:54;135.98;;;54.08;;
40244;SDS011;25963;42.694;23.600;2022-11-15T00:45:20;259.38;;;62.85;;
40244;SDS011;25963;42.694;23.600;2022-11-15T00:47:45;166.57;;;55.55;;
40244;SDS011;25963;42.694;23.600;2022-11-15T00:50:14;163.30;;;50.05;;
40244;SDS011;25963;42.694;23.600;2022-11-15T00:52:39;142.40;;;48.47;;
40244;SDS011;25963;42.694;23.600;2022-11-15T00:55:05;122.65;;;49.92;;
40244;SDS011;25963;42.694;23.600;2022-11-15T00:57:30;109.72;;;45.60;;
40244;SDS011;25963;42.694;23.600;2022-11-15T00:59:56;91.53;;;42.75;;
40244;SDS011;25963;42.694;23.600;2022-11-15T01:02:21;117.72;;;47.78;;
40244;SDS011;25963;42.694;23.600;2022-11-15T01:04:47;136.18;;;44.65;;
40244;SDS011;25963;42.694;23.600;2022-11-15T01:07:12;114.60;;;45.80;;
40244;SDS011;25963;42.694;23.600;2022-11-15T01:09:38;181.05;;;39.88;;
40244;SDS011;25963;42.694;23.600;2022-11-15T01:12:03;142.57;;;36.78;;
40244;SDS011;25963;42.694;23.600;2022-11-15T01:14:29;120.63;;;34.78;;
40244;SDS011;25963;42.694;23.600;2022-11-15T01:16:54;72.75;;;31.13;;
40244;SDS011;25963;42.694;23.600;2022-11-15T01:19:20;69.10;;;33.45;;
40244;SDS011;25963;42.694;23.600;2022-11-15T01:21:48;98.03;;;37.83;;
40244;SDS011;25963;42.694;23.600;2022-11-15T01:24:14;82.55;;;37.22;;
40244;SDS011;25963;42.694;23.600;2022-11-15T01:26:40;71.47;;;35.40;;
40244;SDS011;25963;42.694;23.600;2022-11-15T01:29:06;79.20;;;38.05;;
40244;SDS011;25963;42.694;23.600;2022-11-15T01:31:31;68.05;;;36.83;;
40244;SDS011;25963;42.694;23.600;2022-11-15T01:33:56;82.57;;;42.20;;
40244;SDS011;25963;42.694;23.600;2022-11-15T01:36:22;75.43;;;40.00;;
40244;SDS011;25963;42.694;23.600;2022-11-15T01:38:54;80.30;;;41.50;;
40244;SDS011;25963;42.694;23.600;2022-11-15T01:41:25;65.80;;;35.40;;
40244;SDS011;25963;42.694;23.600;2022-11-15T01:43:53;64.93;;;35.58;;
40244;SDS011;25963;42.694;23.600;2022-11-15T01:46:39;59.58;;;30.25;;
40244;SDS011;25963;42.694;23.600;2022-11-15T01:49:14;64.18;;;31.38;;
40244;SDS011;25963;42.694;23.600;2022-11-15T01:51:45;91.65;;;31.90;;
40244;SDS011;25963;42.694;23.600;2022-11-15T01:54:13;89.55;;;30.83;;
40244;SDS011;25963;42.694;23.600;2022-11-15T01:56:44;80.60;;;33.05;;
40244;SDS011;25963;42.694;23.600;2022-11-15T01:59:14;88.13;;;40.78;;
40244;SDS011;25963;42.694;23.600;2022-11-15T02:01:40;76.65;;;35.35;;
40244;SDS011;25963;42.694;23.600;2022-11-15T02:04:07;83.95;;;38.20;;
40244;SDS011;25963;42.694;23.600;2022-11-15T02:06:34;132.10;;;49.53;;
40244;SDS011;25963;42.694;23.600;2022-11-15T02:09:00;156.52;;;63.13;;
40244;SDS011;25963;42.694;23.600;2022-11-15T02:11:26;264.55;;;64.32;;
40244;SDS011;25963;42.694;23.600;2022-11-15T02:13:52;172.40;;;58.33;;
40244;SDS011;25963;42.694;23.600;2022-11-15T02:16:35;447.40;;;68.03;;
40244;SDS011;25963;42.694;23.600;2022-11-15T02:29:44;240.85;;;55.75;;
40244;SDS011;25963;42.694;23.600;2022-11-15T02:32:48;426.73;;;79.35;;
40244;SDS011;25963;42.694;23.600;2022-11-15T02:37:51;271.48;;;56.38;;
40244;SDS011;25963;42.694;23.600;2022-11-15T02:43:09;189.40;;;61.25;;
40244;SDS011;25963;42.694;23.600;2022-11-15T02:45:58;173.60;;;59.67;;
40244;SDS011;25963;42.694;23.600;2022-11-15T02:48:34;272.08;;;71.25;;
40244;SDS011;25963;42.694;23.600;2022-11-15T02:51:01;152.77;;;53.75;;
40244;SDS011;25963;42.694;23.600;2022-11-15T02:53:27;189.13;;;52.53;;
40244;SDS011;25963;42.694;23.600;2022-11-15T02:55:53;242.13;;;56.67;;
40244;SDS011;25963;42.694;23.600;2022-11-15T03:04:09;167.10;;;50.00;;
40244;SDS011;25963;42.694;23.600;2022-11-15T03:09:34;155.07;;;45.38;;
40244;SDS011;25963;42.694;23.600;2022-11-15T03:12:10;157.32;;;42.92;;
40244;SDS011;25963;42.694;23.600;2022-11-15T03:19:49;255.70;;;48.72;;
40244;SDS011;25963;42.694;23.600;2022-11-15T03:22:18;144.55;;;43.80;;
40244;SDS011;25963;42.694;23.600;2022-11-15T03:24:47;201.27;;;44.53;;
40244;SDS011;25963;42.694;23.600;2022-11-15T03:27:21;205.40;;;42.22;;
40244;SDS011;25963;42.694;23.600;2022-11-15T03:29:51;284.52;;;42.25;;
40244;SDS011;25963;42.694;23.600;2022-11-15T03:32:21;211.75;;;41.65;;
40244;SDS011;25963;42.694;23.600;2022-11-15T03:35:00;360.27;;;80.65;;
40244;SDS011;25963;42.694;23.600;2022-11-15T03:37:36;375.88;;;97.55;;
40244;SDS011;25963;42.694;23.600;2022-11-15T03:40:07;491.90;;;140.15;;
40244;SDS011;25963;42.694;23.600;2022-11-15T03:48:26;340.63;;;71.97;;
40244;SDS011;25963;42.694;23.600;2022-11-15T03:50:46;764.38;;;238.23;;
40244;SDS011;25963;42.694;23.600;2022-11-15T03:53:13;507.80;;;150.55;;
40244;SDS011;25963;42.694;23.600;2022-11-15T03:55:39;601.83;;;167.95;;
40244;SDS011;25963;42.694;23.600;2022-11-15T03:58:04;942.50;;;311.05;;
40244;SDS011;25963;42.694;23.600;2022-11-15T04:00:30;499.60;;;156.65;;
40244;SDS011;25963;42.694;23.600;2022-11-15T04:02:55;516.47;;;137.10;;
40244;SDS011;25963;42.694;23.600;2022-11-15T04:05:21;180.77;;;42.28;;
40244;SDS011;25963;42.694;23.600;2022-11-15T04:07:46;255.18;;;45.45;;
40244;SDS011;25963;42.694;23.600;2022-11-15T04:10:12;219.10;;;41.50;;
40244;SDS011;25963;42.694;23.600;2022-11-15T04:12:39;218.00;;;43.55;;
40244;SDS011;25963;42.694;23.600;2022-11-15T04:15:09;951.08;;;303.17;;
40244;SDS011;25963;42.694;23.600;2022-11-15T04:17:37;416.45;;;102.35;;
40244;SDS011;25963;42.694;23.600;2022-11-15T04:20:05;355.67;;;74.93;;
40244;SDS011;25963;42.694;23.600;2022-11-15T04:22:53;455.30;;;109.40;;
40244;SDS011;25963;42.694;23.600;2022-11-15T04:25:37;226.68;;;45.45;;
40244;SDS011;25963;42.694;23.600;2022-11-15T04:28:03;265.80;;;55.65;;
40244;SDS011;25963;42.694;23.600;2022-11-15T04:30:28;334.63;;;65.82;;
40244;SDS011;25963;42.694;23.600;2022-11-15T04:32:54;569.08;;;155.07;;
40244;SDS011;25963;42.694;23.600;2022-11-15T04:35:19;566.72;;;138.18;;
40244;SDS011;25963;42.694;23.600;2022-11-15T04:37:45;585.63;;;163.13;;
40244;SDS011;25963;42.694;23.600;2022-11-15T04:40:10;574.22;;;122.25;;
40244;SDS011;25963;42.694;23.600;2022-11-15T04:42:36;480.65;;;97.30;;
40244;SDS011;25963;42.694;23.600;2022-11-15T04:45:01;332.65;;;53.28;;
40244;SDS011;25963;42.694;23.600;2022-11-15T04:47:27;299.02;;;48.25;;
40244;SDS011;25963;42.694;23.600;2022-11-15T04:49:53;315.23;;;58.25;;
40244;SDS011;25963;42.694;23.600;2022-11-15T04:52:18;345.23;;;54.13;;
40244;SDS011;25963;42.694;23.600;2022-11-15T04:54:43;358.00;;;58.45;;
40244;SDS011;25963;42.694;23.600;2022-11-15T04:57:09;335.60;;;72.38;;
40244;SDS011;25963;42.694;23.600;2022-11-15T04:59:35;331.73;;;69.22;;
40244;SDS011;25963;42.694;23.600;2022-11-15T05:02:00;331.95;;;69.75;;
40244;SDS011;25963;42.694;23.600;2022-11-15T05:04:26;373.13;;;59.45;;
40244;SDS011;25963;42.694;23.600;2022-11-15T05:06:51;371.90;;;57.20;;
40244;SDS011;25963;42.694;23.600;2022-11-15T05:09:17;193.88;;;43.03;;
40244;SDS011;25963;42.694;23.600;2022-11-15T05:11:44;301.77;;;50.95;;
40244;SDS011;25963;42.694;23.600;2022-11-15T05:14:10;279.52;;;53.38;;
40244;SDS011;25963;42.694;23.600;2022-11-15T05:16:35;273.42;;;58.03;;
40244;SDS011;25963;42.694;23.600;2022-11-15T05:19:01;368.65;;;72.75;;
40244;SDS011;25963;42.694;23.600;2022-11-15T05:21:27;223.32;;;69.72;;
40244;SDS011;25963;42.694;23.600;2022-11-15T05:23:52;230.85;;;52.13;;
40244;SDS011;25963;42.694;23.600;2022-11-15T05:26:18;176.95;;;46.15;;
40244;SDS011;25963;42.694;23.600;2022-11-15T05:28:44;195.13;;;49.75;;
40244;SDS011;25963;42.694;23.600;2022-11-15T05:31:13;234.73;;;51.65;;
40244;SDS011;25963;42.694;23.600;2022-11-15T05:33:40;213.10;;;64.65;;
40244;SDS011;25963;42.694;23.600;2022-11-15T05:36:07;510.65;;;130.48;;
40244;SDS011;25963;42.694;23.600;2022-11-15T05:38:55;368.67;;;110.15;;
40244;SDS011;25963;42.694;23.600;2022-11-15T05:41:21;239.75;;;73.68;;
40244;SDS011;25963;42.694;23.600;2022-11-15T05:43:57;329.42;;;82.60;;
40244;SDS011;25963;42.694;23.600;2022-11-15T05:46:23;328.35;;;110.63;;
40244;SDS011;25963;42.694;23.600;2022-11-15T05:48:48;244.70;;;84.82;;
40244;SDS011;25963;42.694;23.600;2022-11-15T05:51:16;246.98;;;82.95;;
40244;SDS011;25963;42.694;23.600;2022-11-15T05:53:43;183.00;;;66.50;;
40244;SDS011;25963;42.694;23.600;2022-11-15T05:56:10;162.32;;;65.82;;
40244;SDS011;25963;42.694;23.600;2022-11-15T05:58:36;221.18;;;69.18;;
40244;SDS011;25963;42.694;23.600;2022-11-15T06:01:02;217.70;;;62.47;;
40244;SDS011;25963;42.694;23.600;2022-11-15T06:03:29;197.90;;;64.25;;
40244;SDS011;25963;42.694;23.600;2022-11-15T06:05:54;171.93;;;61.70;;
40244;SDS011;25963;42.694;23.600;2022-11-15T06:08:21;151.38;;;64.78;;
40244;SDS011;25963;42.694;23.600;2022-11-15T06:10:46;196.02;;;70.88;;
40244;SDS011;25963;42.694;23.600;2022-11-15T06:13:11;181.07;;;64.07;;
40244;SDS011;25963;42.694;23.600;2022-11-15T06:15:37;139.30;;;61.97;;
40244;SDS011;25963;42.694;23.600;2022-11-15T06:18:02;181.80;;;59.33;;
40244;SDS011;25963;42.694;23.600;2022-11-15T06:20:28;165.25;;;61.70;;
40244;SDS011;25963;42.694;23.600;2022-11-15T06:23:01;183.48;;;59.10;;
40244;SDS011;25963;42.694;23.600;2022-11-15T06:25:29;156.10;;;59.05;;
40244;SDS011;25963;42.694;23.600;2022-11-15T06:27:55;171.07;;;58.03;;
40244;SDS011;25963;42.694;23.600;2022-11-15T06:30:22;173.02;;;74.32;;
40244;SDS011;25963;42.694;23.600;2022-11-15T06:32:48;141.18;;;57.83;;
40244;SDS011;25963;42.694;23.600;2022-11-15T06:35:14;162.90;;;61.72;;
40244;SDS011;25963;42.694;23.600;2022-11-15T06:37:39;239.52;;;67.03;;
40244;SDS011;25963;42.694;23.600;2022-11-15T06:40:05;170.63;;;70.53;;
40244;SDS011;25963;42.694;23.600;2022-11-15T06:42:32;189.15;;;58.08;;
40244;SDS011;25963;42.694;23.600;2022-11-15T06:44:57;119.88;;;51.78;;
40244;SDS011;25963;42.694;23.600;2022-11-15T06:47:23;172.52;;;66.15;;
40244;SDS011;25963;42.694;23.600;2022-11-15T06:49:48;156.35;;;62.03;;
40244;SDS011;25963;42.694;23.600;2022-11-15T06:52:14;159.13;;;61.03;;
40244;SDS011;25963;42.694;23.600;2022-11-15T06:54:39;176.10;;;60.17;;
40244;SDS011;25963;42.694;23.600;2022-11-15T06:57:04;141.80;;;51.00;;
40244;SDS011;25963;42.694;23.600;2022-11-15T06:59:30;182.23;;;60.97;;
40244;SDS011;25963;42.694;23.600;2022-11-15T07:01:55;149.90;;;61.45;;
40244;SDS011;25963;42.694;23.600;2022-11-15T07:04:21;135.35;;;56.03;;
40244;SDS011;25963;42.694;23.600;2022-11-15T07:06:47;129.68;;;56.65;;
40244;SDS011;25963;42.694;23.600;2022-11-15T07:09:13;143.73;;;62.65;;
40244;SDS011;25963;42.694;23.600;2022-11-15T07:11:38;167.63;;;78.60;;
40244;SDS011;25963;42.694;23.600;2022-11-15T07:14:04;130.02;;;53.30;;
40244;SDS011;25963;42.694;23.600;2022-11-15T07:16:30;127.35;;;54.70;;
40244;SDS011;25963;42.694;23.600;2022-11-15T07:18:55;128.45;;;52.42;;
40244;SDS011;25963;42.694;23.600;2022-11-15T07:21:20;107.43;;;48.60;;
40244;SDS011;25963;42.694;23.600;2022-11-15T07:23:46;110.40;;;47.58;;
40244;SDS011;25963;42.694;23.600;2022-11-15T07:26:11;117.03;;;50.40;;
40244;SDS011;25963;42.694;23.600;2022-11-15T07:28:37;119.10;;;55.15;;
40244;SDS011;25963;42.694;23.600;2022-11-15T07:31:03;156.18;;;75.97;;
40244;SDS011;25963;42.694;23.600;2022-11-15T07:33:30;118.57;;;49.72;;
40244;SDS011;25963;42.694;23.600;2022-11-15T07:35:58;105.75;;;48.42;;
40244;SDS011;25963;42.694;23.600;2022-11-15T07:38:26;111.23;;;47.47;;
40244;SDS011;25963;42.694;23.600;2022-11-15T07:40:56;96.45;;;43.88;;
40244;SDS011;25963;42.694;23.600;2022-11-15T07:43:22;100.68;;;44.58;;
40244;SDS011;25963;42.694;23.600;2022-11-15T07:45:48;123.40;;;51.83;;
40244;SDS011;25963;42.694;23.600;2022-11-15T07:48:13;66.60;;;31.58;;
40244;SDS011;25963;42.694;23.600;2022-11-15T07:50:42;89.90;;;38.60;;
40244;SDS011;25963;42.694;23.600;2022-11-15T07:53:07;113.70;;;45.95;;
40244;SDS011;25963;42.694;23.600;2022-11-15T07:55:34;71.93;;;31.90;;
40244;SDS011;25963;42.694;23.600;2022-11-15T07:58:00;71.05;;;32.45;;
40244;SDS011;25963;42.694;23.600;2022-11-15T08:00:30;73.35;;;33.90;;
40244;SDS011;25963;42.694;23.600;2022-11-15T08:03:05;64.35;;;29.13;;
40244;SDS011;25963;42.694;23.600;2022-11-15T08:05:39;89.10;;;38.40;;
40244;SDS011;25963;42.694;23.600;2022-11-15T08:08:07;85.35;;;35.13;;
40244;SDS011;25963;42.694;23.600;2022-11-15T08:10:33;88.72;;;37.30;;
40244;SDS011;25963;42.694;23.600;2022-11-15T08:13:06;130.32;;;57.47;;
40244;SDS011;25963;42.694;23.600;2022-11-15T08:15:33;78.90;;;34.33;;
40244;SDS011;25963;42.694;23.600;2022-11-15T08:18:00;111.22;;;54.95;;
40244;SDS011;25963;42.694;23.600;2022-11-15T08:20:28;78.47;;;33.63;;
40244;SDS011;25963;42.694;23.600;2022-11-15T08:22:55;63.65;;;29.67;;
40244;SDS011;25963;42.694;23.600;2022-11-15T08:25:22;73.70;;;31.67;;
40244;SDS011;25963;42.694;23.600;2022-11-15T08:27:51;103.45;;;47.60;;
40244;SDS011;25963;42.694;23.600;2022-11-15T08:30:17;77.60;;;31.20;;
40244;SDS011;25963;42.694;23.600;2022-11-15T08:32:43;62.33;;;32.05;;
40244;SDS011;25963;42.694;23.600;2022-11-15T08:35:08;82.97;;;35.63;;
40244;SDS011;25963;42.694;23.600;2022-11-15T08:37:34;78.00;;;34.97;;
40244;SDS011;25963;42.694;23.600;2022-11-15T08:40:00;75.32;;;36.63;;
40244;SDS011;25963;42.694;23.600;2022-11-15T08:42:25;56.97;;;29.75;;
40244;SDS011;25963;42.694;23.600;2022-11-15T08:44:51;73.13;;;37.80;;
40244;SDS011;25963;42.694;23.600;2022-11-15T08:47:16;66.25;;;32.40;;
40244;SDS011;25963;42.694;23.600;2022-11-15T08:49:42;60.45;;;30.25;;
40244;SDS011;25963;42.694;23.600;2022-11-15T08:52:07;64.22;;;30.70;;
40244;SDS011;25963;42.694;23.600;2022-11-15T08:54:32;51.42;;;25.48;;
40244;SDS011;25963;42.694;23.600;2022-11-15T08:56:58;55.53;;;26.33;;
40244;SDS011;25963;42.694;23.600;2022-11-15T08:59:23;58.92;;;29.70;;
40244;SDS011;25963;42.694;23.600;2022-11-15T09:01:49;56.72;;;30.02;;
40244;SDS011;25963;42.694;23.600;2022-11-15T09:04:14;76.45;;;36.88;;
40244;SDS011;25963;42.694;23.600;2022-11-15T09:06:40;108.95;;;52.15;;
40244;SDS011;25963;42.694;23.600;2022-11-15T09:09:05;59.92;;;30.52;;
40244;SDS011;25963;42.694;23.600;2022-11-15T09:11:31;60.90;;;29.00;;
40244;SDS011;25963;42.694;23.600;2022-11-15T09:13:56;55.92;;;28.77;;
40244;SDS011;25963;42.694;23.600;2022-11-15T09:16:22;56.65;;;28.60;;
40244;SDS011;25963;42.694;23.600;2022-11-15T09:18:47;57.13;;;30.30;;
40244;SDS011;25963;42.694;23.600;2022-11-15T09:21:13;55.20;;;28.73;;
40244;SDS011;25963;42.694;23.600;2022-11-15T09:23:38;51.63;;;26.60;;
40244;SDS011;25963;42.694;23.600;2022-11-15T09:26:05;65.78;;;31.75;;
40244;SDS011;25963;42.694;23.600;2022-11-15T09:28:31;61.92;;;29.40;;
40244;SDS011;25963;42.694;23.600;2022-11-15T09:30:58;57.13;;;29.33;;
40244;SDS011;25963;42.694;23.600;2022-11-15T09:33:25;52.47;;;27.65;;
40244;SDS011;25963;42.694;23.600;2022-11-15T09:35:51;75.93;;;38.70;;
40244;SDS011;25963;42.694;23.600;2022-11-15T09:38:16;57.28;;;29.40;;
40244;SDS011;25963;42.694;23.600;2022-11-15T09:40:42;56.25;;;29.58;;
40244;SDS011;25963;42.694;23.600;2022-11-15T09:51:25;60.35;;;29.83;;
40244;SDS011;25963;42.694;23.600;2022-11-15T09:54:03;52.35;;;28.35;;
40244;SDS011;25963;42.694;23.600;2022-11-15T09:56:35;54.58;;;29.58;;
40244;SDS011;25963;42.694;23.600;2022-11-15T10:04:33;60.47;;;29.73;;
40244;SDS011;25963;42.694;23.600;2022-11-15T10:10:15;62.45;;;32.28;;
40244;SDS011;25963;42.694;23.600;2022-11-15T10:12:56;58.92;;;30.80;;
40244;SDS011;25963;42.694;23.600;2022-11-15T10:15:22;38.50;;;23.67;;
40244;SDS011;25963;42.694;23.600;2022-11-15T10:18:07;42.92;;;26.05;;
40244;SDS011;25963;42.694;23.600;2022-11-15T10:23:10;46.88;;;25.80;;
40244;SDS011;25963;42.694;23.600;2022-11-15T10:25:38;54.72;;;28.98;;
40244;SDS011;25963;42.694;23.600;2022-11-15T10:30:57;47.65;;;27.38;;
40244;SDS011;25963;42.694;23.600;2022-11-15T10:33:35;40.28;;;26.05;;
40244;SDS011;25963;42.694;23.600;2022-11-15T10:38:49;48.75;;;27.40;;
40244;SDS011;25963;42.694;23.600;2022-11-15T10:44:20;40.60;;;27.45;;
40244;SDS011;25963;42.694;23.600;2022-11-15T10:49:25;43.72;;;27.15;;
40244;SDS011;25963;42.694;23.600;2022-11-15T10:54:36;44.70;;;28.92;;
40244;SDS011;25963;42.694;23.600;2022-11-15T10:57:15;48.80;;;27.25;;
40244;SDS011;25963;42.694;23.600;2022-11-15T10:59:47;46.38;;;29.33;;
40244;SDS011;25963;42.694;23.600;2022-11-15T11:04:59;46.22;;;27.77;;
40244;SDS011;25963;42.694;23.600;2022-11-15T11:07:26;38.40;;;25.45;;
40244;SDS011;25963;42.694;23.600;2022-11-15T11:09:57;40.17;;;25.85;;
40244;SDS011;25963;42.694;23.600;2022-11-15T11:12:43;41.20;;;28.48;;
40244;SDS011;25963;42.694;23.600;2022-11-15T11:15:12;40.47;;;26.30;;
40244;SDS011;25963;42.694;23.600;2022-11-15T11:23:32;36.15;;;24.00;;
40244;SDS011;25963;42.694;23.600;2022-11-15T11:28:39;39.78;;;27.70;;
40244;SDS011;25963;42.694;23.600;2022-11-15T11:34:21;40.03;;;25.05;;
40244;SDS011;25963;42.694;23.600;2022-11-15T11:50:39;36.08;;;26.38;;
40244;SDS011;25963;42.694;23.600;2022-11-15T11:55:56;33.75;;;23.52;;
40244;SDS011;25963;42.694;23.600;2022-11-15T11:58:37;40.65;;;25.48;;
40244;SDS011;25963;42.694;23.600;2022-11-15T12:06:35;43.03;;;28.17;;
40244;SDS011;25963;42.694;23.600;2022-11-15T12:14:59;55.15;;;34.05;;
40244;SDS011;25963;42.694;23.600;2022-11-15T12:17:28;37.28;;;25.00;;
40244;SDS011;25963;42.694;23.600;2022-11-15T12:19:57;32.53;;;22.27;;
40244;SDS011;25963;42.694;23.600;2022-11-15T12:31:04;42.15;;;28.90;;
40244;SDS011;25963;42.694;23.600;2022-11-15T12:33:40;34.97;;;23.60;;
40244;SDS011;25963;42.694;23.600;2022-11-15T12:36:11;41.40;;;26.83;;
40244;SDS011;25963;42.694;23.600;2022-11-15T12:39:07;38.08;;;26.58;;
40244;SDS011;25963;42.694;23.600;2022-11-15T12:41:37;44.20;;;27.35;;
40244;SDS011;25963;42.694;23.600;2022-11-15T12:44:04;44.35;;;29.98;;
40244;SDS011;25963;42.694;23.600;2022-11-15T12:49:10;45.90;;;31.23;;
40244;SDS011;25963;42.694;23.600;2022-11-15T13:04:53;64.82;;;43.00;;
40244;SDS011;25963;42.694;23.600;2022-11-15T13:17:50;45.90;;;31.60;;
40244;SDS011;25963;42.694;23.600;2022-11-15T13:20:25;79.45;;;47.65;;
40244;SDS011;25963;42.694;23.600;2022-11-15T13:23:00;43.50;;;30.10;;
40244;SDS011;25963;42.694;23.600;2022-11-15T13:28:32;53.50;;;34.15;;
40244;SDS011;25963;42.694;23.600;2022-11-15T13:31:03;49.13;;;34.78;;
40244;SDS011;25963;42.694;23.600;2022-11-15T13:33:47;42.67;;;28.88;;
40244;SDS011;25963;42.694;23.600;2022-11-15T13:36:13;43.67;;;31.90;;
40244;SDS011;25963;42.694;23.600;2022-11-15T13:38:53;56.80;;;38.08;;
40244;SDS011;25963;42.694;23.600;2022-11-15T13:41:47;46.38;;;33.72;;
40244;SDS011;25963;42.694;23.600;2022-11-15T13:44:25;50.40;;;31.85;;
40244;SDS011;25963;42.694;23.600;2022-11-15T13:47:05;47.42;;;31.27;;
40244;SDS011;25963;42.694;23.600;2022-11-15T13:49:37;42.25;;;29.65;;
40244;SDS011;25963;42.694;23.600;2022-11-15T13:52:04;50.42;;;29.75;;
40244;SDS011;25963;42.694;23.600;2022-11-15T14:02:11;53.90;;;36.63;;
40244;SDS011;25963;42.694;23.600;2022-11-15T14:04:45;47.92;;;32.28;;
40244;SDS011;25963;42.694;23.600;2022-11-15T14:07:23;49.28;;;31.17;;
40244;SDS011;25963;42.694;23.600;2022-11-15T14:09:50;48.58;;;30.77;;
40244;SDS011;25963;42.694;23.600;2022-11-15T14:12:21;46.88;;;30.00;;
40244;SDS011;25963;42.694;23.600;2022-11-15T14:15:01;46.75;;;31.17;;
40244;SDS011;25963;42.694;23.600;2022-11-15T14:17:43;48.38;;;31.80;;
40244;SDS011;25963;42.694;23.600;2022-11-15T14:22:54;48.05;;;32.05;;
40244;SDS011;25963;42.694;23.600;2022-11-15T14:25:22;51.97;;;31.45;;
40244;SDS011;25963;42.694;23.600;2022-11-15T14:28:08;50.13;;;29.15;;
40244;SDS011;25963;42.694;23.600;2022-11-15T14:30:44;54.08;;;34.97;;
40244;SDS011;25963;42.694;23.600;2022-11-15T14:38:36;48.17;;;30.88;;
40244;SDS011;25963;42.694;23.600;2022-11-15T14:41:02;47.92;;;31.58;;
40244;SDS011;25963;42.694;23.600;2022-11-15T14:43:27;49.88;;;32.30;;
40244;SDS011;25963;42.694;23.600;2022-11-15T14:45:53;57.60;;;38.80;;
40244;SDS011;25963;42.694;23.600;2022-11-15T14:48:19;55.47;;;36.40;;
40244;SDS011;25963;42.694;23.600;2022-11-15T14:50:47;56.63;;;35.63;;
40244;SDS011;25963;42.694;23.600;2022-11-15T14:53:16;48.42;;;32.42;;
40244;SDS011;25963;42.694;23.600;2022-11-15T14:55:43;57.30;;;35.67;;
40244;SDS011;25963;42.694;23.600;2022-11-15T14:58:08;55.25;;;35.05;;
40244;SDS011;25963;42.694;23.600;2022-11-15T15:00:39;75.70;;;42.95;;
40244;SDS011;25963;42.694;23.600;2022-11-15T15:03:06;154.10;;;74.30;;
40244;SDS011;25963;42.694;23.600;2022-11-15T15:05:42;107.10;;;59.67;;
40244;SDS011;25963;42.694;23.600;2022-11-15T15:08:09;120.45;;;70.18;;
40244;SDS011;25963;42.694;23.600;2022-11-15T15:10:36;74.32;;;46.33;;
40244;SDS011;25963;42.694;23.600;2022-11-15T15:13:04;70.63;;;42.85;;
40244;SDS011;25963;42.694;23.600;2022-11-15T15:15:34;75.85;;;46.63;;
40244;SDS011;25963;42.694;23.600;2022-11-15T15:18:01;78.55;;;48.47;;
40244;SDS011;25963;42.694;23.600;2022-11-15T15:20:27;79.82;;;49.00;;
40244;SDS011;25963;42.694;23.600;2022-11-15T15:22:53;79.07;;;44.17;;
40244;SDS011;25963;42.694;23.600;2022-11-15T15:25:32;70.88;;;42.35;;
40244;SDS011;25963;42.694;23.600;2022-11-15T15:28:00;65.50;;;40.17;;
40244;SDS011;25963;42.694;23.600;2022-11-15T15:30:38;76.43;;;45.60;;
40244;SDS011;25963;42.694;23.600;2022-11-15T15:33:04;80.10;;;47.47;;
40244;SDS011;25963;42.694;23.600;2022-11-15T15:35:30;81.47;;;45.70;;
40244;SDS011;25963;42.694;23.600;2022-11-15T15:37:58;82.72;;;46.35;;
40244;SDS011;25963;42.694;23.600;2022-11-15T15:40:25;73.38;;;44.42;;
40244;SDS011;25963;42.694;23.600;2022-11-15T15:42:52;78.20;;;45.20;;
40244;SDS011;25963;42.694;23.600;2022-11-15T15:45:18;80.97;;;44.15;;
40244;SDS011;25963;42.694;23.600;2022-11-15T15:47:45;92.22;;;51.15;;
40244;SDS011;25963;42.694;23.600;2022-11-15T15:52:46;96.57;;;53.45;;
40244;SDS011;25963;42.694;23.600;2022-11-15T15:55:11;71.22;;;43.80;;
40244;SDS011;25963;42.694;23.600;2022-11-15T15:57:37;85.40;;;47.50;;
40244;SDS011;25963;42.694;23.600;2022-11-15T16:00:03;90.70;;;50.00;;
40244;SDS011;25963;42.694;23.600;2022-11-15T16:02:30;100.65;;;56.95;;
40244;SDS011;25963;42.694;23.600;2022-11-15T16:04:55;90.13;;;48.78;;
40244;SDS011;25963;42.694;23.600;2022-11-15T16:07:21;79.03;;;41.25;;
40244;SDS011;25963;42.694;23.600;2022-11-15T16:09:48;75.57;;;40.33;;
40244;SDS011;25963;42.694;23.600;2022-11-15T16:12:30;88.50;;;42.90;;
40244;SDS011;25963;42.694;23.600;2022-11-15T16:14:57;95.93;;;51.60;;
40244;SDS011;25963;42.694;23.600;2022-11-15T16:17:24;67.65;;;39.50;;
40244;SDS011;25963;42.694;23.600;2022-11-15T16:19:52;87.95;;;48.65;;
40244;SDS011;25963;42.694;23.600;2022-11-15T16:22:17;78.20;;;47.30;;
40244;SDS011;25963;42.694;23.600;2022-11-15T16:24:43;85.60;;;46.03;;
40244;SDS011;25963;42.694;23.600;2022-11-15T16:27:15;81.03;;;45.95;;
40244;SDS011;25963;42.694;23.600;2022-11-15T16:29:43;84.28;;;44.40;;
40244;SDS011;25963;42.694;23.600;2022-11-15T16:32:10;68.70;;;38.92;;
40244;SDS011;25963;42.694;23.600;2022-11-15T16:34:35;71.78;;;40.88;;
40244;SDS011;25963;42.694;23.600;2022-11-15T16:37:01;75.63;;;40.67;;
40244;SDS011;25963;42.694;23.600;2022-11-15T16:39:26;69.18;;;36.42;;
40244;SDS011;25963;42.694;23.600;2022-11-15T16:41:54;64.45;;;38.28;;
40244;SDS011;25963;42.694;23.600;2022-11-15T16:44:21;67.80;;;35.10;;
40244;SDS011;25963;42.694;23.600;2022-11-15T16:46:47;72.68;;;38.50;;
40244;SDS011;25963;42.694;23.600;2022-11-15T16:49:15;68.88;;;35.90;;
40244;SDS011;25963;42.694;23.600;2022-11-15T16:51:42;68.25;;;36.55;;
40244;SDS011;25963;42.694;23.600;2022-11-15T16:54:10;69.90;;;37.85;;
40244;SDS011;25963;42.694;23.600;2022-11-15T16:56:36;65.82;;;38.15;;
40244;SDS011;25963;42.694;23.600;2022-11-15T16:59:03;64.63;;;36.08;;